createdAt,value
2017-11-26T00:00:52.442Z,2.41
2017-11-26T00:02:01.893Z,2.43
2017-11-26T00:03:11.895Z,2.4
2017-11-26T00:04:21.871Z,2.4
2017-11-26T00:05:31.853Z,2.37
2017-11-26T00:06:41.555Z,2.37
2017-11-26T00:07:51.527Z,2.43
2017-11-26T00:09:00.977Z,2.43
2017-11-26T00:10:10.948Z,2.34
2017-11-26T00:11:20.922Z,2.34
2017-11-26T00:12:30.892Z,2.37
2017-11-26T00:13:40.360Z,2.36
2017-11-26T00:14:50.340Z,2.44
2017-11-26T00:16:00.309Z,2.4
2017-11-26T00:17:10.266Z,2.37
2017-11-26T00:18:19.977Z,2.4
2017-11-26T00:19:29.961Z,2.37
2017-11-26T00:20:39.686Z,2.34
2017-11-26T00:21:49.138Z,2.44
2017-11-26T00:22:58.870Z,2.4
2017-11-26T00:24:08.832Z,2.4
2017-11-26T00:25:18.805Z,2.39
2017-11-26T00:26:28.517Z,2.37
2017-11-26T00:27:38.233Z,2.3
2017-11-26T00:28:47.933Z,2.3
2017-11-26T00:29:57.634Z,2.32
2017-11-26T00:31:07.357Z,2.32
2017-11-26T00:32:16.798Z,2.32
2017-11-26T00:33:26.499Z,2.32
2017-11-26T00:34:36.470Z,2.32
2017-11-26T00:35:46.175Z,2.32
2017-11-26T00:36:55.896Z,2.3
2017-11-26T00:38:05.681Z,2.28
2017-11-26T00:39:15.403Z,2.28
2017-11-26T00:40:25.141Z,2.26
2017-11-26T00:41:34.549Z,2.22
2017-11-26T00:42:44.527Z,2.34
2017-11-26T00:43:54.241Z,2.3
2017-11-26T00:45:04.188Z,2.3
2017-11-26T00:46:14.161Z,2.3
2017-11-26T00:47:23.870Z,2.23
2017-11-26T00:48:33.871Z,2.28
2017-11-26T00:49:43.835Z,2.3
2017-11-26T00:50:53.814Z,2.21
2017-11-26T00:52:03.517Z,2.28
2017-11-26T00:53:13.225Z,2.26
2017-11-26T00:54:22.679Z,2.28
2017-11-26T00:55:32.398Z,2.26
2017-11-26T00:56:42.138Z,2.33
2017-11-26T00:57:51.549Z,2.34
2017-11-26T00:59:01.533Z,2.34
2017-11-26T01:00:11.506Z,2.32
2017-11-26T01:01:21.479Z,2.28
2017-11-26T01:02:31.177Z,2.3
2017-11-26T01:03:40.896Z,2.36
2017-11-26T01:04:50.881Z,2.28
2017-11-26T01:06:00.870Z,2.28
2017-11-26T01:07:10.051Z,2.34
2017-11-26T01:08:19.747Z,2.26
2017-11-26T01:09:29.731Z,2.26
2017-11-26T01:10:39.196Z,2.3
2017-11-26T01:11:49.185Z,2.32
2017-11-26T01:12:58.930Z,2.26
2017-11-26T01:14:08.912Z,2.25
2017-11-26T01:15:18.881Z,2.26
2017-11-26T01:16:28.851Z,2.26
2017-11-26T01:17:38.552Z,2.15
2017-11-26T01:18:48.019Z,2.12
2017-11-26T01:19:57.442Z,2.21
2017-11-26T01:21:06.621Z,2.1
2017-11-26T01:22:16.319Z,2.08
2017-11-26T01:23:26.291Z,2.08
2017-11-26T01:24:35.989Z,2.08
2017-11-26T01:25:45.436Z,2.04
2017-11-26T01:26:55.402Z,2.01
2017-11-26T01:28:05.114Z,2
2017-11-26T01:29:14.835Z,1.92
2017-11-26T01:30:24.605Z,1.93
2017-11-26T01:31:34.046Z,1.89
2017-11-26T01:32:44.021Z,1.93
2017-11-26T01:33:53.780Z,1.93
2017-11-26T01:35:03.493Z,1.93
2017-11-26T01:36:13.214Z,1.93
2017-11-26T01:37:22.933Z,1.95
2017-11-26T01:38:32.371Z,2.03
2017-11-26T01:39:41.818Z,1.97
2017-11-26T01:40:51.543Z,1.97
2017-11-26T01:42:01.514Z,1.89
2017-11-26T01:43:10.960Z,1.93
2017-11-26T01:44:20.659Z,1.93
2017-11-26T01:45:30.121Z,1.97
2017-11-26T01:46:39.828Z,1.98
2017-11-26T01:47:49.801Z,1.95
2017-11-26T01:48:59.518Z,1.88
2017-11-26T01:50:09.480Z,2.01
2017-11-26T01:51:19.473Z,1.98
2017-11-26T01:52:28.658Z,2.03
2017-11-26T01:53:38.622Z,1.98
2017-11-26T01:54:48.071Z,2.01
2017-11-26T01:55:57.548Z,2.03
2017-11-26T01:57:07.556Z,2.07
2017-11-26T01:58:17.265Z,2.07
2017-11-26T01:59:26.987Z,2.04
2017-11-26T02:00:36.697Z,2.07
2017-11-26T02:01:46.146Z,2.04
2017-11-26T02:02:56.116Z,2.07
2017-11-26T02:04:06.094Z,2.04
2017-11-26T02:05:15.804Z,2.14
2017-11-26T02:06:25.764Z,2.08
2017-11-26T02:07:35.464Z,2.01
2017-11-26T02:08:45.436Z,2
2017-11-26T02:09:55.421Z,2
2017-11-26T02:11:05.392Z,2.05
2017-11-26T02:12:14.835Z,2
2017-11-26T02:13:24.533Z,2.03
2017-11-26T02:14:34.243Z,2.05
2017-11-26T02:15:43.687Z,2.04
2017-11-26T02:16:53.661Z,2.01
2017-11-26T02:18:03.657Z,2.04
2017-11-26T02:19:13.408Z,2.04
2017-11-26T02:20:23.118Z,2.07
2017-11-26T02:21:33.078Z,2.07
2017-11-26T02:22:42.786Z,2.01
2017-11-26T02:23:52.506Z,2.05
2017-11-26T02:25:02.073Z,2.07
2017-11-26T02:26:11.763Z,2.01
2017-11-26T02:27:21.204Z,2.04
2017-11-26T02:28:30.939Z,2.07
2017-11-26T02:29:40.920Z,2.08
2017-11-26T02:30:50.900Z,2.04
2017-11-26T02:32:00.620Z,2.03
2017-11-26T02:33:10.340Z,2.07
2017-11-26T02:34:19.819Z,2
2017-11-26T02:35:29.779Z,2.03
2017-11-26T02:36:39.483Z,2.05
2017-11-26T02:37:49.458Z,2.05
2017-11-26T02:38:59.480Z,2.04
2017-11-26T02:40:09.200Z,2.03
2017-11-26T02:41:18.922Z,2.08
2017-11-26T02:42:28.922Z,2
2017-11-26T02:43:38.382Z,2.05
2017-11-26T02:44:48.101Z,1.98
2017-11-26T02:45:57.808Z,2.12
2017-11-26T02:47:07.527Z,2.01
2017-11-26T02:48:17.527Z,2.08
2017-11-26T02:49:27.251Z,2.04
2017-11-26T02:50:37.229Z,2.05
2017-11-26T02:51:46.947Z,2.08
2017-11-26T02:52:56.947Z,2.04
2017-11-26T02:54:06.415Z,2.08
2017-11-26T02:55:16.406Z,2.03
2017-11-26T02:56:26.359Z,1.98
2017-11-26T02:57:36.051Z,2
2017-11-26T02:58:45.761Z,2.07
2017-11-26T02:59:55.508Z,2.05
2017-11-26T03:01:05.208Z,2.04
2017-11-26T03:02:14.900Z,2.08
2017-11-26T03:03:24.338Z,2.03
2017-11-26T03:04:33.773Z,2.19
2017-11-26T03:05:43.218Z,2.1
2017-11-26T03:06:53.187Z,2.22
2017-11-26T03:08:02.628Z,2.21
2017-11-26T03:09:12.332Z,2.25
2017-11-26T03:10:22.299Z,2.12
2017-11-26T03:11:32.285Z,2.1
2017-11-26T03:12:42.012Z,2.16
2017-11-26T03:13:51.455Z,2.22
2017-11-26T03:15:00.914Z,2.21
2017-11-26T03:16:10.624Z,2.22
2017-11-26T03:17:20.340Z,2.26
2017-11-26T03:18:30.319Z,2.33
2017-11-26T03:19:40.284Z,2.22
2017-11-26T03:20:49.724Z,2.28
2017-11-26T03:21:59.161Z,2.16
2017-11-26T03:23:09.120Z,2.26
2017-11-26T03:24:19.088Z,2.12
2017-11-26T03:25:29.061Z,2.22
2017-11-26T03:26:39.012Z,2.15
2017-11-26T03:27:48.968Z,2.15
2017-11-26T03:28:58.686Z,2.22
2017-11-26T03:30:08.671Z,2.18
2017-11-26T03:31:18.668Z,2.18
2017-11-26T03:32:28.110Z,2.18
2017-11-26T03:33:38.073Z,2
2017-11-26T03:34:48.056Z,2.05
2017-11-26T03:35:58.031Z,2.01
2017-11-26T03:37:07.762Z,2.07
2017-11-26T03:38:17.993Z,2
2017-11-26T03:39:27.441Z,2
2017-11-26T03:40:37.142Z,1.88
2017-11-26T03:41:46.865Z,1.84
2017-11-26T03:42:56.577Z,1.7
2017-11-26T03:44:06.282Z,1.64
2017-11-26T03:45:15.475Z,1.48
2017-11-26T03:46:25.183Z,1.49
2017-11-26T03:47:35.161Z,1.48
2017-11-26T03:48:44.593Z,1.49
2017-11-26T03:49:54.292Z,1.46
2017-11-26T03:51:04.256Z,1.42
2017-11-26T03:52:13.966Z,1.39
2017-11-26T03:53:23.709Z,1.28
2017-11-26T03:54:33.415Z,1.27
2017-11-26T03:55:43.115Z,1.25
2017-11-26T03:56:52.805Z,1.3
2017-11-26T03:58:02.510Z,1.28
2017-11-26T03:59:11.959Z,1.2
2017-11-26T04:00:21.940Z,1.13
2017-11-26T04:01:31.650Z,1.18
2017-11-26T04:02:41.094Z,1.14
2017-11-26T04:03:50.805Z,1.16
2017-11-26T04:05:00.777Z,1.22
2017-11-26T04:06:09.963Z,1.13
2017-11-26T04:07:19.669Z,1.12
2017-11-26T04:08:28.847Z,1.16
2017-11-26T04:09:38.614Z,1.12
2017-11-26T04:10:48.582Z,1.14
2017-11-26T04:11:58.054Z,1.13
2017-11-26T04:13:07.791Z,1.14
2017-11-26T04:14:17.497Z,1.06
2017-11-26T04:15:26.935Z,1.07
2017-11-26T04:16:36.733Z,1.1
2017-11-26T04:17:46.450Z,1.07
2017-11-26T04:18:55.895Z,1.09
2017-11-26T04:20:05.861Z,1.07
2017-11-26T04:21:15.844Z,1.09
2017-11-26T04:22:25.827Z,1.13
2017-11-26T04:23:35.533Z,1.09
2017-11-26T04:24:45.233Z,1.12
2017-11-26T04:25:54.945Z,1.22
2017-11-26T04:27:04.652Z,1.2
2017-11-26T04:28:14.380Z,1.22
2017-11-26T04:29:24.059Z,1.27
2017-11-26T04:30:34.030Z,1.25
2017-11-26T04:31:43.478Z,1.24
2017-11-26T04:32:52.913Z,1.31
2017-11-26T04:34:02.875Z,1.27
2017-11-26T04:35:12.572Z,1.27
2017-11-26T04:36:22.538Z,1.24
2017-11-26T04:37:32.512Z,1.14
2017-11-26T04:38:42.220Z,1.2
2017-11-26T04:39:51.939Z,1.12
2017-11-26T04:41:01.648Z,1.16
2017-11-26T04:42:11.609Z,1.1
2017-11-26T04:43:21.069Z,1.21
2017-11-26T04:44:31.029Z,1.14
2017-11-26T04:45:40.500Z,1.18
2017-11-26T04:46:50.223Z,1.09
2017-11-26T04:48:00.185Z,1.09
2017-11-26T04:49:09.883Z,1.09
2017-11-26T04:50:19.593Z,0.94
2017-11-26T04:51:29.292Z,0.99
2017-11-26T04:52:38.986Z,0.95
2017-11-26T04:53:48.949Z,0.85
2017-11-26T04:54:58.954Z,0.91
2017-11-26T04:56:08.919Z,0.89
2017-11-26T04:57:18.894Z,0.89
2017-11-26T04:58:28.328Z,0.84
2017-11-26T04:59:38.125Z,0.85
2017-11-26T05:00:48.089Z,0.84
2017-11-26T05:01:58.062Z,0.86
2017-11-26T05:03:08.022Z,0.86
2017-11-26T05:04:17.988Z,0.85
2017-11-26T05:05:27.947Z,0.78
2017-11-26T05:06:37.914Z,0.85
2017-11-26T05:07:47.897Z,0.84
2017-11-26T05:08:57.601Z,0.82
2017-11-26T05:10:07.296Z,0.89
2017-11-26T05:11:17.001Z,0.78
2017-11-26T05:12:26.710Z,0.89
2017-11-26T05:13:36.678Z,0.88
2017-11-26T05:14:46.667Z,0.88
2017-11-26T05:15:56.373Z,0.82
2017-11-26T05:17:05.838Z,0.91
2017-11-26T05:18:15.557Z,0.89
2017-11-26T05:19:24.749Z,0.84
2017-11-26T05:20:34.731Z,0.95
2017-11-26T05:21:44.443Z,0.95
2017-11-26T05:22:54.157Z,0.92
2017-11-26T05:24:03.588Z,0.95
2017-11-26T05:25:13.285Z,0.82
2017-11-26T05:26:22.993Z,0.85
2017-11-26T05:27:32.961Z,0.84
2017-11-26T05:28:42.670Z,0.78
2017-11-26T05:29:52.855Z,0.76
2017-11-26T05:31:02.576Z,0.81
2017-11-26T05:32:12.292Z,0.82
2017-11-26T05:33:22.248Z,0.81
2017-11-26T05:34:31.431Z,0.84
2017-11-26T05:35:41.156Z,0.82
2017-11-26T05:36:50.866Z,0.81
2017-11-26T05:38:00.846Z,0.73
2017-11-26T05:39:10.560Z,0.66
2017-11-26T05:40:20.297Z,0.7
2017-11-26T05:41:30.266Z,0.68
2017-11-26T05:42:39.705Z,0.71
2017-11-26T05:43:49.152Z,0.67
2017-11-26T05:44:59.121Z,0.63
2017-11-26T05:46:09.084Z,0.58
2017-11-26T05:47:18.259Z,0.49
2017-11-26T05:48:27.964Z,0.59
2017-11-26T05:49:37.974Z,0.55
2017-11-26T05:50:47.685Z,0.52
2017-11-26T05:51:57.653Z,0.52
2017-11-26T05:53:07.349Z,0.55
2017-11-26T05:54:17.056Z,0.63
2017-11-26T05:55:26.505Z,0.58
2017-11-26T05:56:36.487Z,0.63
2017-11-26T05:57:46.758Z,0.52
2017-11-26T05:58:56.206Z,0.61
2017-11-26T06:00:06.180Z,0.64
2017-11-26T06:01:16.161Z,0.64
2017-11-26T06:02:25.880Z,0.63
2017-11-26T06:03:35.324Z,0.66
2017-11-26T06:04:44.767Z,0.63
2017-11-26T06:05:54.748Z,0.64
2017-11-26T06:07:04.450Z,0.59
2017-11-26T06:08:14.152Z,0.68
2017-11-26T06:09:23.586Z,0.55
2017-11-26T06:10:33.291Z,0.59
2017-11-26T06:11:43.024Z,0.58
2017-11-26T06:12:52.470Z,0.63
2017-11-26T06:14:02.443Z,0.63
2017-11-26T06:15:11.882Z,0.58
2017-11-26T06:16:21.578Z,0.67
2017-11-26T06:17:31.279Z,0.55
2017-11-26T06:18:41.245Z,0.56
2017-11-26T06:19:50.682Z,0.58
2017-11-26T06:21:00.639Z,0.66
2017-11-26T06:22:10.349Z,0.68
2017-11-26T06:23:20.040Z,0.68
2017-11-26T06:24:29.749Z,0.73
2017-11-26T06:25:39.184Z,0.71
2017-11-26T06:26:49.165Z,0.71
2017-11-26T06:27:58.604Z,0.77
2017-11-26T06:29:08.572Z,0.78
2017-11-26T06:30:18.277Z,0.85
2017-11-26T06:31:28.015Z,0.84
2017-11-26T06:32:37.708Z,0.95
2017-11-26T06:33:47.718Z,0.89
2017-11-26T06:34:57.431Z,0.94
2017-11-26T06:36:07.393Z,0.91
2017-11-26T06:37:17.350Z,0.89
2017-11-26T06:38:27.309Z,0.91
2017-11-26T06:39:37.268Z,0.99
2017-11-26T06:40:46.971Z,0.96
2017-11-26T06:41:56.678Z,0.92
2017-11-26T06:43:06.641Z,0.94
2017-11-26T06:44:16.080Z,0.91
2017-11-26T06:45:25.796Z,1.07
2017-11-26T06:46:35.769Z,1.04
2017-11-26T06:47:45.739Z,1.14
2017-11-26T06:48:55.453Z,1.16
2017-11-26T06:50:05.153Z,1.21
2017-11-26T06:51:15.114Z,1.09
2017-11-26T06:52:25.086Z,1.1
2017-11-26T06:53:34.532Z,1.12
2017-11-26T06:54:44.239Z,1.14
2017-11-26T06:55:53.937Z,1.22
2017-11-26T06:57:03.389Z,1.25
2017-11-26T06:58:13.367Z,1.18
2017-11-26T06:59:23.072Z,1.18
2017-11-26T07:00:32.778Z,1.18
2017-11-26T07:01:42.478Z,1.24
2017-11-26T07:02:52.690Z,1.24
2017-11-26T07:04:02.656Z,1.18
2017-11-26T07:05:12.365Z,1.24
2017-11-26T07:06:21.807Z,1.24
2017-11-26T07:07:31.249Z,1.28
2017-11-26T07:08:41.213Z,1.25
2017-11-26T07:09:51.170Z,1.31
2017-11-26T07:11:01.365Z,1.25
2017-11-26T07:12:11.341Z,1.28
2017-11-26T07:13:21.319Z,1.28
2017-11-26T07:14:31.029Z,1.3
2017-11-26T07:15:40.237Z,1.31
2017-11-26T07:16:50.223Z,1.32
2017-11-26T07:18:00.192Z,1.38
2017-11-26T07:19:10.165Z,1.34
2017-11-26T07:20:20.132Z,1.4
2017-11-26T07:21:30.106Z,1.36
2017-11-26T07:22:39.818Z,1.45
2017-11-26T07:23:49.245Z,1.48
2017-11-26T07:24:58.968Z,1.43
2017-11-26T07:26:08.684Z,1.32
2017-11-26T07:27:18.661Z,1.45
2017-11-26T07:28:28.359Z,1.43
2017-11-26T07:29:37.799Z,1.48
2017-11-26T07:30:47.498Z,1.46
2017-11-26T07:31:57.259Z,1.52
2017-11-26T07:33:07.240Z,1.5
2017-11-26T07:34:16.953Z,1.5
2017-11-26T07:35:26.942Z,1.57
2017-11-26T07:36:36.901Z,1.52
2017-11-26T07:37:46.599Z,1.58
2017-11-26T07:38:56.579Z,1.52
2017-11-26T07:40:06.035Z,1.49
2017-11-26T07:41:16.022Z,1.46
2017-11-26T07:42:25.989Z,1.45
2017-11-26T07:43:35.977Z,1.49
2017-11-26T07:44:45.939Z,1.48
2017-11-26T07:45:55.918Z,1.48
2017-11-26T07:47:05.902Z,1.48
2017-11-26T07:48:15.631Z,1.52
2017-11-26T07:49:25.340Z,1.49
2017-11-26T07:50:34.523Z,1.61
2017-11-26T07:51:43.959Z,1.57
2017-11-26T07:52:53.937Z,1.6
2017-11-26T07:54:03.908Z,1.64
2017-11-26T07:55:13.379Z,1.64
2017-11-26T07:56:23.356Z,1.61
2017-11-26T07:57:33.322Z,1.6
2017-11-26T07:58:43.063Z,1.68
2017-11-26T07:59:52.774Z,1.64
2017-11-26T08:01:02.491Z,1.57
2017-11-26T08:02:12.207Z,1.58
2017-11-26T08:03:21.895Z,1.66
2017-11-26T08:04:31.075Z,1.61
2017-11-26T08:05:41.044Z,1.64
2017-11-26T08:06:50.995Z,1.6
2017-11-26T08:08:00.443Z,1.61
2017-11-26T08:09:10.435Z,1.61
2017-11-26T08:10:20.143Z,1.6
2017-11-26T08:11:30.121Z,1.64
2017-11-26T08:12:39.826Z,1.67
2017-11-26T08:13:49.540Z,1.75
2017-11-26T08:14:59.256Z,1.75
2017-11-26T08:16:08.969Z,1.82
2017-11-26T08:17:18.959Z,2
2017-11-26T08:18:28.667Z,2.03
2017-11-26T08:19:38.413Z,2.1
2017-11-26T08:20:47.864Z,2.23
2017-11-26T08:21:57.305Z,2.28
2017-11-26T08:23:07.269Z,2.37
2017-11-26T08:24:16.999Z,2.26
2017-11-26T08:25:26.456Z,2.37
2017-11-26T08:26:36.419Z,2.41
2017-11-26T08:27:46.139Z,2.43
2017-11-26T08:28:55.849Z,2.5
2017-11-26T08:30:05.825Z,2.51
2017-11-26T08:31:15.827Z,2.59
2017-11-26T08:32:25.289Z,2.57
2017-11-26T08:33:34.739Z,2.69
2017-11-26T08:34:44.737Z,2.7
2017-11-26T08:35:54.460Z,2.68
2017-11-26T08:37:04.176Z,2.73
2017-11-26T08:38:14.143Z,2.95
2017-11-26T08:39:23.870Z,3.03
2017-11-26T08:40:33.878Z,2.95
2017-11-26T08:41:43.827Z,2.98
2017-11-26T08:42:53.539Z,3.03
2017-11-26T08:44:03.010Z,2.93
2017-11-26T08:45:12.724Z,3
2017-11-26T08:46:22.702Z,3.03
2017-11-26T08:47:32.409Z,3.13
2017-11-26T08:48:42.126Z,3.18
2017-11-26T08:49:51.821Z,3.33
2017-11-26T08:51:01.537Z,3.37
2017-11-26T08:52:11.252Z,3.34
2017-11-26T08:53:21.245Z,3.52
2017-11-26T08:54:30.962Z,3.45
2017-11-26T08:55:40.680Z,3.48
2017-11-26T08:56:50.652Z,3.37
2017-11-26T08:58:00.637Z,3.45
2017-11-26T08:59:09.829Z,3.45
2017-11-26T09:00:19.821Z,3.58
2017-11-26T09:01:29.530Z,3.48
2017-11-26T09:02:39.241Z,3.52
2017-11-26T09:03:49.231Z,3.41
2017-11-26T09:04:58.934Z,3.31
2017-11-26T09:06:08.906Z,3.22
2017-11-26T09:07:18.887Z,3.27
2017-11-26T09:08:28.079Z,3.22
2017-11-26T09:09:37.782Z,3.15
2017-11-26T09:10:47.756Z,3.06
2017-11-26T09:11:57.183Z,3.12
2017-11-26T09:13:07.175Z,3.03
2017-11-26T09:14:17.181Z,2.95
2017-11-26T09:15:27.148Z,2.98
2017-11-26T09:16:36.868Z,2.88
2017-11-26T09:17:46.579Z,3.09
2017-11-26T09:18:56.301Z,3.29
2017-11-26T09:20:06.289Z,3.33
2017-11-26T09:21:16.256Z,3.49
2017-11-26T09:22:25.977Z,3.67
2017-11-26T09:23:35.687Z,3.88
2017-11-26T09:24:45.399Z,3.96
2017-11-26T09:25:55.378Z,4.16
2017-11-26T09:27:05.100Z,4.24
2017-11-26T09:28:14.832Z,4.32
2017-11-26T09:29:24.791Z,4.43
2017-11-26T09:30:34.602Z,4.48
2017-11-26T09:31:44.050Z,4.45
2017-11-26T09:32:54.032Z,4.21
2017-11-26T09:34:03.752Z,4.14
2017-11-26T09:35:13.718Z,4.06
2017-11-26T09:36:23.175Z,3.99
2017-11-26T09:37:33.169Z,3.89
2017-11-26T09:38:43.138Z,3.89
2017-11-26T09:39:53.117Z,3.92
2017-11-26T09:41:03.104Z,3.77
2017-11-26T09:42:13.069Z,3.71
2017-11-26T09:43:23.060Z,3.73
2017-11-26T09:44:33.055Z,3.7
2017-11-26T09:45:42.761Z,3.64
2017-11-26T09:46:52.498Z,3.58
2017-11-26T09:48:02.485Z,3.56
2017-11-26T09:49:11.921Z,3.7
2017-11-26T09:50:21.629Z,3.66
2017-11-26T09:51:31.595Z,3.7
2017-11-26T09:52:41.598Z,3.56
2017-11-26T09:53:51.584Z,3.66
2017-11-26T09:55:00.764Z,3.63
2017-11-26T09:56:10.769Z,3.63
2017-11-26T09:57:20.766Z,3.64
2017-11-26T09:58:30.487Z,3.64
2017-11-26T09:59:40.462Z,3.63
2017-11-26T10:00:50.185Z,3.59
2017-11-26T10:02:00.158Z,3.61
2017-11-26T10:03:09.883Z,3.59
2017-11-26T10:04:19.590Z,3.56
2017-11-26T10:05:29.033Z,3.64
2017-11-26T10:06:38.757Z,3.66
2017-11-26T10:07:48.455Z,3.67
2017-11-26T10:08:58.424Z,3.73
2017-11-26T10:10:07.877Z,3.68
2017-11-26T10:11:17.586Z,3.68
2017-11-26T10:12:27.297Z,3.68
2017-11-26T10:13:36.750Z,3.64
2017-11-26T10:14:46.471Z,3.71
2017-11-26T10:15:56.189Z,3.7
2017-11-26T10:17:05.896Z,3.66
2017-11-26T10:18:15.604Z,3.7
2017-11-26T10:19:25.582Z,3.68
2017-11-26T10:20:34.769Z,3.67
2017-11-26T10:21:44.764Z,3.73
2017-11-26T10:22:54.456Z,3.7
2017-11-26T10:24:04.441Z,3.82
2017-11-26T10:25:14.421Z,3.84
2017-11-26T10:26:24.147Z,3.86
2017-11-26T10:27:34.152Z,3.88
2017-11-26T10:28:43.600Z,3.89
2017-11-26T10:29:53.298Z,3.92
2017-11-26T10:31:03.017Z,3.94
2017-11-26T10:32:12.726Z,3.99
2017-11-26T10:33:22.692Z,4.02
2017-11-26T10:34:32.449Z,4.1
2017-11-26T10:35:41.910Z,4.22
2017-11-26T10:36:51.885Z,4.39
2017-11-26T10:38:01.865Z,4.68
2017-11-26T10:39:11.858Z,4.9
2017-11-26T10:40:21.816Z,5.22
2017-11-26T10:41:31.523Z,5.44
2017-11-26T10:42:41.571Z,5.58
2017-11-26T10:43:51.564Z,5.73
2017-11-26T10:45:01.282Z,5.67
2017-11-26T10:46:10.753Z,5.9
2017-11-26T10:47:20.475Z,5.95
2017-11-26T10:48:30.469Z,6.15
2017-11-26T10:49:40.475Z,6.13
2017-11-26T10:50:49.935Z,6.25
2017-11-26T10:51:59.926Z,6.13
2017-11-26T10:53:09.897Z,6.12
2017-11-26T10:54:19.603Z,6.2
2017-11-26T10:55:29.584Z,6.36
2017-11-26T10:56:39.312Z,6.52
2017-11-26T10:57:49.054Z,6.77
2017-11-26T10:58:58.804Z,6.9
2017-11-26T11:00:08.834Z,6.89
2017-11-26T11:01:18.819Z,7.03
2017-11-26T11:02:28.534Z,6.87
2017-11-26T11:03:38.561Z,6.68
2017-11-26T11:04:48.537Z,6.68
2017-11-26T11:05:58.245Z,6.54
2017-11-26T11:07:07.947Z,6.62
2017-11-26T11:08:17.675Z,6.64
2017-11-26T11:09:27.392Z,6.68
2017-11-26T11:10:37.382Z,6.74
2017-11-26T11:11:47.113Z,6.68
2017-11-26T11:12:56.867Z,6.72
2017-11-26T11:14:06.861Z,6.75
2017-11-26T11:15:16.580Z,6.59
2017-11-26T11:16:26.341Z,6.59
2017-11-26T11:17:36.310Z,6.31
2017-11-26T11:18:46.069Z,6.12
2017-11-26T11:19:55.805Z,6.13
2017-11-26T11:21:05.524Z,5.9
2017-11-26T11:22:15.250Z,5.79
2017-11-26T11:23:24.986Z,5.67
2017-11-26T11:24:34.706Z,5.72
2017-11-26T11:25:44.731Z,5.61
2017-11-26T11:26:54.187Z,5.41
2017-11-26T11:28:03.633Z,5.47
2017-11-26T11:29:13.605Z,5.38
2017-11-26T11:30:23.063Z,5.33
2017-11-26T11:31:32.533Z,5.31
2017-11-26T11:32:41.994Z,5.28
2017-11-26T11:33:51.434Z,5.28
2017-11-26T11:35:00.941Z,5.23
2017-11-26T11:36:10.930Z,5.29
2017-11-26T11:37:20.925Z,5.33
2017-11-26T11:38:30.113Z,5.28
2017-11-26T11:39:39.830Z,5.31
2017-11-26T11:40:49.795Z,5.23
2017-11-26T11:41:59.293Z,5.26
2017-11-26T11:43:08.218Z,5.26
2017-11-26T11:44:17.957Z,5.23
2017-11-26T11:45:27.684Z,5.26
2017-11-26T11:46:37.400Z,5.23
2017-11-26T11:47:47.117Z,5.29
2017-11-26T11:48:56.845Z,5.37
2017-11-26T11:50:06.819Z,5.33
2017-11-26T11:51:16.279Z,5.26
2017-11-26T11:52:25.994Z,5.29
2017-11-26T11:53:35.461Z,5.33
2017-11-26T11:54:45.179Z,5.36
2017-11-26T11:55:54.927Z,5.43
2017-11-26T11:57:04.944Z,5.54
2017-11-26T11:58:14.922Z,5.43
2017-11-26T11:59:24.651Z,5.4
2017-11-26T12:00:34.643Z,5.44
2017-11-26T12:01:44.639Z,5.59
2017-11-26T12:02:54.346Z,5.7
2017-11-26T12:04:04.352Z,5.72
2017-11-26T12:05:14.068Z,5.72
2017-11-26T12:06:24.041Z,5.74
2017-11-26T12:07:33.796Z,5.7
2017-11-26T12:08:43.513Z,5.62
2017-11-26T12:09:53.250Z,5.72
2017-11-26T12:11:02.964Z,5.79
2017-11-26T12:12:12.420Z,5.73
2017-11-26T12:13:22.383Z,5.77
2017-11-26T12:14:32.106Z,5.87
2017-11-26T12:15:41.864Z,5.99
2017-11-26T12:16:51.849Z,5.94
2017-11-26T12:18:01.832Z,5.91
2017-11-26T12:19:11.816Z,5.87
2017-11-26T12:20:21.795Z,5.79
2017-11-26T12:21:31.799Z,5.79
2017-11-26T12:22:41.773Z,5.62
2017-11-26T12:23:51.220Z,5.61
2017-11-26T12:25:00.660Z,5.65
2017-11-26T12:26:10.110Z,5.56
2017-11-26T12:27:20.090Z,5.55
2017-11-26T12:28:30.082Z,5.46
2017-11-26T12:29:39.524Z,5.44
2017-11-26T12:30:49.519Z,5.36
2017-11-26T12:31:59.227Z,5.46
2017-11-26T12:33:09.213Z,5.31
2017-11-26T12:34:19.194Z,5.36
2017-11-26T12:35:29.191Z,5.36
2017-11-26T12:36:38.937Z,5.34
2017-11-26T12:37:48.440Z,5.34
2017-11-26T12:38:57.895Z,5.34
2017-11-26T12:40:07.629Z,5.29
2017-11-26T12:41:17.351Z,5.26
2017-11-26T12:42:27.059Z,5.29
2017-11-26T12:43:36.793Z,5.31
2017-11-26T12:44:46.767Z,5.33
2017-11-26T12:45:56.769Z,5.34
2017-11-26T12:47:06.229Z,5.34
2017-11-26T12:48:16.214Z,5.26
2017-11-26T12:49:26.204Z,5.33
2017-11-26T12:50:36.185Z,5.31
2017-11-26T12:51:45.906Z,5.29
2017-11-26T12:52:55.885Z,5.26
2017-11-26T12:54:05.338Z,5.26
2017-11-26T12:55:15.046Z,5.29
2017-11-26T12:56:24.785Z,5.26
2017-11-26T12:57:34.488Z,5.36
2017-11-26T12:58:44.452Z,5.29
2017-11-26T12:59:53.921Z,5.29
2017-11-26T13:01:03.906Z,5.36
2017-11-26T13:02:13.877Z,5.31
2017-11-26T13:03:23.063Z,5.33
2017-11-26T13:04:32.517Z,5.34
2017-11-26T13:05:42.494Z,5.36
2017-11-26T13:06:51.950Z,5.41
2017-11-26T13:08:01.660Z,5.4
2017-11-26T13:09:11.392Z,5.34
2017-11-26T13:10:21.411Z,5.31
2017-11-26T13:11:31.139Z,5.38
2017-11-26T13:12:41.111Z,5.31
2017-11-26T13:13:50.552Z,5.31
2017-11-26T13:15:00.526Z,5.34
2017-11-26T13:16:09.973Z,5.33
2017-11-26T13:17:19.682Z,5.34
2017-11-26T13:18:29.667Z,5.37
2017-11-26T13:19:39.392Z,5.36
2017-11-26T13:20:49.384Z,5.34
2017-11-26T13:21:59.116Z,5.36
2017-11-26T13:23:09.114Z,5.36
2017-11-26T13:24:19.100Z,5.25
2017-11-26T13:25:28.546Z,5.38
2017-11-26T13:26:38.521Z,5.34
2017-11-26T13:27:47.968Z,5.31
2017-11-26T13:28:57.413Z,5.36
2017-11-26T13:30:07.123Z,5.28
2017-11-26T13:31:17.099Z,5.36
2017-11-26T13:32:27.071Z,5.37
2017-11-26T13:33:37.063Z,5.41
2017-11-26T13:34:47.042Z,5.36
2017-11-26T13:35:56.777Z,5.34
2017-11-26T13:37:06.761Z,5.37
2017-11-26T13:38:16.759Z,5.38
2017-11-26T13:39:26.732Z,5.37
2017-11-26T13:40:36.194Z,5.31
2017-11-26T13:41:45.659Z,5.4
2017-11-26T13:42:55.100Z,5.36
2017-11-26T13:44:04.815Z,5.37
2017-11-26T13:45:14.792Z,5.41
2017-11-26T13:46:24.508Z,5.38
2017-11-26T13:47:34.220Z,5.34
2017-11-26T13:48:43.916Z,5.34
2017-11-26T13:49:53.640Z,5.38
2017-11-26T13:51:03.618Z,5.41
2017-11-26T13:52:13.363Z,5.49
2017-11-26T13:53:23.066Z,5.43
2017-11-26T13:54:32.515Z,5.44
2017-11-26T13:55:42.226Z,5.37
2017-11-26T13:56:51.938Z,5.36
2017-11-26T13:58:01.647Z,5.38
2017-11-26T13:59:11.112Z,5.38
2017-11-26T14:00:21.085Z,5.41
2017-11-26T14:01:30.791Z,5.37
2017-11-26T14:02:40.510Z,5.38
2017-11-26T14:03:50.480Z,5.33
2017-11-26T14:04:59.936Z,5.38
2017-11-26T14:06:09.921Z,5.36
2017-11-26T14:07:19.377Z,5.36
2017-11-26T14:08:29.351Z,5.26
2017-11-26T14:09:39.066Z,5.33
2017-11-26T14:10:49.030Z,5.36
2017-11-26T14:11:59.129Z,5.36
2017-11-26T14:13:09.117Z,5.31
2017-11-26T14:14:19.093Z,5.4
2017-11-26T14:15:28.565Z,5.34
2017-11-26T14:16:38.547Z,5.41
2017-11-26T14:17:48.271Z,5.34
2017-11-26T14:18:57.980Z,5.38
2017-11-26T14:20:07.706Z,5.34
2017-11-26T14:21:17.684Z,5.33
2017-11-26T14:22:27.419Z,5.28
2017-11-26T14:23:37.401Z,5.36
2017-11-26T14:24:47.387Z,5.26
2017-11-26T14:25:57.356Z,5.29
2017-11-26T14:27:07.397Z,5.31
2017-11-26T14:28:17.384Z,5.23
2017-11-26T14:29:26.849Z,5.33
2017-11-26T14:30:36.306Z,5.29
2017-11-26T14:31:46.016Z,5.25
2017-11-26T14:32:55.736Z,5.31
2017-11-26T14:34:05.463Z,5.15
2017-11-26T14:35:15.165Z,5.2
2017-11-26T14:36:24.883Z,5.23
2017-11-26T14:37:34.611Z,5.22
2017-11-26T14:38:44.062Z,5.19
2017-11-26T14:39:53.789Z,5.26
2017-11-26T14:41:03.529Z,5.28
2017-11-26T14:42:13.002Z,5.23
2017-11-26T14:43:23.004Z,5.25
2017-11-26T14:44:32.983Z,5.19
2017-11-26T14:45:42.445Z,5.23
2017-11-26T14:46:52.414Z,5.19
2017-11-26T14:48:02.402Z,5.15
2017-11-26T14:49:11.608Z,5.2
2017-11-26T14:50:21.312Z,5.07
2017-11-26T14:51:31.045Z,5.15
2017-11-26T14:52:40.499Z,5.19
2017-11-26T14:53:50.482Z,5.2
2017-11-26T14:55:00.708Z,5.1
2017-11-26T14:56:10.160Z,5.18
2017-11-26T14:57:19.880Z,5.15
2017-11-26T14:58:29.852Z,5.23
2017-11-26T14:59:39.574Z,5.16
2017-11-26T15:00:49.577Z,5.13
2017-11-26T15:01:59.297Z,5.15
2017-11-26T15:03:09.281Z,5.15
2017-11-26T15:04:19.007Z,5.15
2017-11-26T15:05:28.986Z,5.04
2017-11-26T15:06:38.703Z,5.13
2017-11-26T15:07:48.434Z,5.19
2017-11-26T15:08:58.398Z,5.13
2017-11-26T15:10:08.106Z,5.16
2017-11-26T15:11:18.122Z,5.13
2017-11-26T15:12:27.608Z,5.16
2017-11-26T15:13:37.590Z,5.13
2017-11-26T15:14:47.557Z,5.15
2017-11-26T15:15:57.543Z,5.13
2017-11-26T15:17:07.260Z,5.22
2017-11-26T15:18:16.975Z,5.16
2017-11-26T15:19:26.689Z,5.12
2017-11-26T15:20:36.663Z,5.05
2017-11-26T15:21:46.381Z,5.07
2017-11-26T15:22:55.817Z,5.02
2017-11-26T15:24:05.531Z,5.05
2017-11-26T15:25:15.001Z,5.05
2017-11-26T15:26:24.966Z,5.05
2017-11-26T15:27:34.428Z,5.02
2017-11-26T15:28:44.402Z,5.01
2017-11-26T15:29:54.386Z,5.05
2017-11-26T15:31:03.823Z,5.01
2017-11-26T15:32:13.548Z,5.08